Rohrbach, Austria
Current Conditions -  °F | °C
As of 10:50 AM on Tuesday 21 Oct 2014 (Local Time) from LOWL Reporting Station
Scattered Clouds Scattered Clouds  
Wind Chill: 59°   Ceiling: Unl
Heat Index: 59°   Visibility: 6mi
Dew Point: 54°   Wind: 7mph
Humidity: 82%   Direction: 260°W
Pressure: 29.94"   Gusts: NA
Location:  48.57°N, 13.98°E
Report Text: LOWL 210850Z 26006KT 9999 FEW012 SCT025 15/12 Q1014 NOSIG
Loading
Personal Weather Stations






























Interactive Weather Map
Tropical Storm Tracking
New forecast layout! Learn more

10-Day Weather Forecast

Advertisements
Track Severe Weather on mobile